Licinio de Almeida, Brazil
Current Conditions -  °F | °C
As of 2:00 PM on Sunday 21 Dec 2014 (Local Time) from SBQV Reporting Station
Scattered Clouds Scattered Clouds  
Wind Chill: 82°   Ceiling: Unl
Heat Index: 85°   Visibility: 6mi
Dew Point: 66°   Wind: 6mph
Humidity: 58%   Direction: 20°NNE
Pressure: 30.06"   Gusts: NA
Location:  14.68°S, 42.51°W
Report Text: SBQV 211700Z 02005KT 9999 SCT020 28/19 Q1018
Loading
Personal Weather Stations






























Interactive Weather Map New forecast layout! Learn more

10-Day Weather Forecast

Advertisements
Track Severe Weather on mobile